Date,TemperatureHighF,TemperatureAvgF,TemperatureLowF,DewpointHighF,DewpointAvgF,DewpointLowF,HumidityHigh,HumidityAvg,HumidityLow,PressureMaxIn,PressureMinIn,WindSpeedMaxMPH,WindSpeedAvgMPH,GustSpeedMaxMPH,PrecipitationSumIn
2013-1-1,27.1,19.5,9.5,22.2,14.9,6.9,91,82,64,30.30,30.14,3,0,7,0.03
2013-1-2,35.3,20.6,8.2,21.8,14.5,5.6,91,79,55,30.30,30.18,5,1,9,0.03
2013-1-3,39.1,28.0,17.3,29.7,23.3,15.3,95,83,66,30.42,30.25,5,1,10,0.00
2013-1-4,40.7,27.0,14.8,26.3,20.6,12.6,96,78,55,30.43,30.31,6,1,16,0.01
2013-1-5,38.8,32.7,24.0,35.3,29.1,20.9,94,87,78,30.31,30.12,4,1,12,0.03
2013-1-6,38.9,29.6,18.8,31.8,23.2,16.6,91,78,54,30.38,30.13,10,2,16,0.00
2013-1-7,50.0,33.5,18.7,28.9,23.6,16.5,92,70,42,30.37,30.13,10,1,13,0.00
2013-1-8,55.6,42.6,31.5,35.6,28.4,24.6,78,59,34,30.15,30.03,6,1,12,0.00
2013-1-9,58.1,43.9,31.7,39.5,33.8,27.7,96,70,38,30.43,30.16,5,1,10,0.00
2013-1-10,48.1,44.3,40.5,47.2,38.5,26.1,97,82,46,30.40,29.76,10,2,16,0.16
2013-1-11,62.0,53.7,44.1,51.3,47.8,43.3,98,82,61,29.81,29.66,10,2,17,0.00
2013-1-12,57.2,40.9,26.9,47.4,32.0,23.2,92,72,50,30.00,29.71,5,2,14,0.07
2013-1-13,26.8,20.8,11.7,24.7,16.7,9.0,92,84,70,30.39,29.97,6,1,12,0.00
2013-1-14,30.8,17.3,7.6,18.5,11.8,5.0,93,80,55,30.53,30.40,3,0,6,0.04
2013-1-16,42.3,33.1,12.6,24.9,22.6,10.4,95,66,49,30.15,30.05,14,2,16,0.06
2013-1-17,45.9,33.0,22.9,29.8,25.6,20.4,91,76,47,30.49,30.16,6,1,13,0.04
2013-1-18,53.5,37.4,22.9,31.6,26.6,20.6,92,68,42,30.49,30.10,5,1,16,0.00
2013-1-19,59.5,48.8,41.2,39.0,34.6,28.1,71,58,45,30.16,29.94,10,2,19,0.00
2013-1-20,42.4,30.6,22.4,31.4,18.3,12.2,81,60,45,30.36,30.17,11,1,14,0.00
2013-1-21,24.7,18.5,15.5,12.7,5.8,-2.0,79,58,34,30.43,30.35,12,2,16,0.00
2013-1-22,23.9,18.2,14.9,10.4,5.0,1.3,81,56,44,30.50,30.37,2,1,7,0.00
2013-1-23,46.0,27.7,13.4,24.9,17.3,9.5,86,67,42,30.41,30.19,5,1,12,0.00
2013-1-24,27.0,21.4,12.1,15.3,8.8,5.3,75,59,42,30.58,30.25,7,2,15,0.00
2013-1-25,43.3,32.7,26.1,22.6,18.0,12.3,70,55,41,30.26,30.14,6,1,13,0.00
2013-1-26,49.5,34.2,23.3,23.6,21.3,18.3,82,61,36,30.39,30.25,5,1,9,0.00
2013-1-28,75.8,69.7,65.4,61.4,59.2,57.3,81,70,59,29.79,29.73,9,2,21,0.00
2013-1-29,68.8,59.5,50.2,61.4,55.9,49.1,97,88,70,29.73,29.39,6,1,20,1.30
2013-1-30,50.6,32.9,25.4,49.7,29.6,18.5,97,88,74,29.95,29.33,11,4,21,0.07
2013-1-31,31.1,21.9,9.6,22.5,13.9,1.3,81,71,59,30.47,29.95,8,3,21,0.01